Time;durP1;ratioP1;P1;durP2;ratioP2;P2;SDS_P1;SDS_P2;PMS_P1;PMS_P2;Temp;Humidity;BMP_temperature;BMP_pressure;BME280_temperature;BME280_humidity;BME280_pressure;Samples;Min_cycle;Max_cycle;Signal;HPM_P1;HPM_P2
2022/06/09 00:01:10;;;;;;;45.45;19.90;;;14.30;99.90;;;;;;4971937;28;20521;-81
2022/06/09 00:04:00;;;;;;;50.95;18.83;;;14.20;99.90;;;;;;4970617;28;20042;-81
2022/06/09 00:06:38;;;;;;;42.83;19.30;;;14.30;99.90;;;;;;4971542;28;20038;-81
2022/06/09 00:09:05;;;;;;;43.67;18.63;;;14.30;99.90;;;;;;4985913;28;20052;-81
2022/06/09 00:11:35;;;;;;;42.28;17.77;;;14.20;99.90;;;;;;4973316;28;20450;-81
2022/06/09 00:14:02;;;;;;;47.95;19.55;;;14.20;99.90;;;;;;4969249;28;20042;-82
2022/06/09 00:16:28;;;;;;;40.10;18.33;;;14.20;99.90;;;;;;4971620;28;20511;-82
2022/06/09 00:18:54;;;;;;;34.83;17.08;;;14.20;99.90;;;;;;4984639;28;20069;-83
2022/06/09 00:21:21;;;;;;;52.47;20.55;;;14.20;99.90;;;;;;4988288;28;20069;-82
2022/06/09 00:23:47;;;;;;;43.38;17.40;;;14.20;99.90;;;;;;4942623;28;20044;-81
2022/06/09 00:26:13;;;;;;;48.20;19.10;;;14.20;99.90;;;;;;4968617;28;20052;-81
2022/06/09 00:28:39;;;;;;;47.47;18.85;;;14.20;99.90;;;;;;4985821;28;20042;-81
2022/06/09 00:31:04;;;;;;;35.33;17.45;;;14.20;99.90;;;;;;4985716;28;20045;-81
2022/06/09 00:33:30;;;;;;;43.78;17.80;;;14.20;99.90;;;;;;4972459;28;20034;-82
2022/06/09 00:35:56;;;;;;;47.28;17.20;;;14.10;99.90;;;;;;4954403;28;20030;-81
2022/06/09 00:38:22;;;;;;;44.42;16.13;;;14.20;99.90;;;;;;4969746;28;20046;-83
2022/06/09 00:40:47;;;;;;;49.28;19.05;;;14.10;99.90;;;;;;4985308;28;20165;-82
2022/06/09 00:43:13;;;;;;;44.53;17.55;;;14.10;99.90;;;;;;4957221;28;20137;-82
2022/06/09 00:45:46;;;;;;;40.85;17.55;;;14.10;99.90;;;;;;4970328;28;20041;-82
2022/06/09 00:48:19;;;;;;;;;;;14.10;99.90;;;;;;4970344;28;20045;-82
2022/06/09 00:50:48;;;;;;;50.80;17.98;;;14.10;99.90;;;;;;4972875;28;20008;-81
2022/06/09 00:53:20;;;;;;;37.55;17.45;;;14.00;99.90;;;;;;4976174;28;20044;-82
2022/06/09 00:55:46;;;;;;;43.00;17.57;;;14.00;99.90;;;;;;4988665;28;20033;-82
2022/06/09 00:58:17;;;;;;;45.28;17.00;;;14.00;99.90;;;;;;4955438;28;20483;-81
2022/06/09 01:01:00;;;;;;;39.90;18.58;;;13.90;99.90;;;;;;4974734;28;20058;-81
2022/06/09 01:03:31;;;;;;;34.65;15.57;;;13.90;99.90;;;;;;4986744;28;20097;-82
2022/06/09 01:06:07;;;;;;;33.40;16.92;;;13.90;99.90;;;;;;4990987;28;20048;-81
2022/06/09 01:08:38;;;;;;;45.25;16.95;;;13.90;99.90;;;;;;4971349;28;20121;-81
2022/06/09 01:11:05;;;;;;;41.97;16.30;;;13.80;99.90;;;;;;4989246;28;20030;-81
2022/06/09 01:13:32;;;;;;;50.72;16.08;;;13.70;99.90;;;;;;4971202;28;20488;-81
2022/06/09 01:16:10;;;;;;;45.45;15.30;;;13.70;99.90;;;;;;4971653;28;20630;-81
2022/06/09 01:18:59;;;;;;;40.13;15.30;;;13.70;99.90;;;;;;4974897;28;20050;-80
2022/06/09 01:21:45;;;;;;;38.08;14.90;;;13.70;99.90;;;;;;4984984;28;20499;-80
2022/06/09 01:24:18;;;;;;;44.72;14.93;;;13.60;99.90;;;;;;5006309;28;20492;-80
2022/06/09 01:27:34;;;;;;;40.08;15.73;;;13.50;99.90;;;;;;5005886;28;20479;-80
2022/06/09 01:30:41;;;;;;;43.00;15.13;;;13.50;99.90;;;;;;4953153;28;20061;-81
2022/06/09 01:33:19;;;;;;;34.28;13.05;;;13.50;99.90;;;;;;4960025;28;20056;-82
2022/06/09 01:35:53;;;;;;;38.20;14.27;;;13.40;99.90;;;;;;4974438;28;20040;-82
2022/06/09 01:38:19;;;;;;;40.05;14.82;;;13.40;99.90;;;;;;4973521;28;20140;-81
2022/06/09 01:40:47;;;;;;;42.33;15.35;;;13.40;99.90;;;;;;4990892;28;20038;-82
2022/06/09 01:43:13;;;;;;;45.33;16.23;;;13.40;99.90;;;;;;4972969;28;20053;-82
2022/06/09 01:46:05;;;;;;;43.55;14.98;;;13.30;99.90;;;;;;4957469;28;20084;-81
2022/06/09 01:48:32;;;;;;;37.72;14.20;;;13.40;99.90;;;;;;4973825;28;20108;-81
2022/06/09 01:51:03;;;;;;;40.63;15.43;;;13.30;99.90;;;;;;4955635;28;20046;-81
2022/06/09 01:53:44;;;;;;;42.88;15.50;;;13.30;99.90;;;;;;4987485;28;20037;-81
2022/06/09 01:56:22;;;;;;;32.45;15.48;;;13.30;99.90;;;;;;4989283;28;20070;-82
2022/06/09 01:58:55;;;;;;;44.15;15.48;;;13.30;99.90;;;;;;4971720;28;20056;-81
2022/06/09 02:01:26;;;;;;;37.65;14.63;;;13.20;99.90;;;;;;4973024;28;20041;-80
2022/06/09 02:03:55;;;;;;;36.33;13.07;;;13.20;99.90;;;;;;4983390;28;20054;-81
2022/06/09 02:06:22;;;;;;;37.35;14.75;;;13.20;99.90;;;;;;4989824;28;20124;-82
2022/06/09 02:08:48;;;;;;;40.20;14.48;;;13.20;99.90;;;;;;4959431;28;20037;-81
2022/06/09 02:11:14;;;;;;;37.03;14.80;;;13.20;99.90;;;;;;4973657;28;20046;-81
2022/06/09 02:13:45;;;;;;;34.75;14.18;;;13.20;99.90;;;;;;4969450;28;20031;-82
2022/06/09 02:16:18;;;;;;;35.40;16.50;;;13.20;99.90;;;;;;4983828;28;20514;-81
2022/06/09 02:18:47;;;;;;;;;;;13.10;99.90;;;;;;4991060;28;20491;-81
2022/06/09 02:21:20;;;;;;;36.90;16.23;;;13.20;99.90;;;;;;4986327;28;19971;-82
2022/06/09 02:23:47;;;;;;;45.38;17.33;;;13.20;99.90;;;;;;4973939;28;20499;-81
2022/06/09 02:26:14;;;;;;;46.88;18.35;;;13.10;99.90;;;;;;4986683;28;20505;-81
2022/06/09 02:28:40;;;;;;;46.47;19.10;;;13.10;99.90;;;;;;4958198;28;20038;-81
2022/06/09 02:31:06;;;;;;;43.55;18.67;;;13.20;99.90;;;;;;4972782;28;20041;-81
2022/06/09 02:33:32;;;;;;;52.17;19.80;;;13.10;99.90;;;;;;4969891;28;20042;-81
2022/06/09 02:35:58;;;;;;;45.47;19.60;;;13.10;99.90;;;;;;4990050;28;20060;-80
2022/06/09 02:38:24;;;;;;;45.53;18.73;;;13.10;99.90;;;;;;4986796;28;20034;-81
2022/06/09 02:40:52;;;;;;;47.92;19.55;;;13.10;99.90;;;;;;4968776;28;20030;-80
2022/06/09 02:43:18;;;;;;;60.88;21.15;;;13.10;99.90;;;;;;4969183;28;20054;-80
2022/06/09 02:45:44;;;;;;;48.53;19.75;;;13.10;99.90;;;;;;4986750;28;20097;-81
2022/06/09 02:48:12;;;;;;;48.67;19.70;;;13.10;99.90;;;;;;4970183;28;20499;-81
2022/06/09 02:50:38;;;;;;;47.97;20.95;;;13.00;99.90;;;;;;4971700;28;20042;-80
2022/06/09 02:53:04;;;;;;;49.17;19.50;;;13.00;99.90;;;;;;4974295;28;20044;-80
2022/06/09 02:55:30;;;;;;;52.08;20.20;;;13.00;99.90;;;;;;4971053;28;20033;-80
2022/06/09 02:57:55;;;;;;;51.90;19.35;;;13.00;99.90;;;;;;4998811;28;20034;-81
2022/06/09 03:00:21;;;;;;;50.10;19.38;;;13.00;99.90;;;;;;4972328;28;20044;-81
2022/06/09 03:02:53;;;;;;;39.45;19.33;;;12.90;99.90;;;;;;4970561;28;20069;-80
2022/06/09 03:05:20;;;;;;;43.43;19.03;;;12.90;99.90;;;;;;4970992;28;20045;-81
2022/06/09 03:07:45;;;;;;;51.83;19.83;;;12.90;99.90;;;;;;4984959;28;20288;-81
2022/06/09 03:10:11;;;;;;;52.17;20.40;;;12.90;99.90;;;;;;4973146;28;20048;-80
2022/06/09 03:12:37;;;;;;;56.55;20.48;;;12.80;99.90;;;;;;4967476;28;20042;-80
2022/06/09 03:15:07;;;;;;;43.35;21.23;;;12.80;99.90;;;;;;4986605;28;20099;-80
2022/06/09 03:17:34;;;;;;;48.08;21.50;;;12.80;99.90;;;;;;4984750;28;20042;-81
2022/06/09 03:20:02;;;;;;;49.22;22.42;;;12.80;99.90;;;;;;4990123;28;20503;-81
2022/06/09 03:22:30;;;;;;;50.72;20.65;;;12.80;99.90;;;;;;4973942;28;20390;-81
2022/06/09 03:24:55;;;;;;;51.40;20.92;;;12.70;99.90;;;;;;4986736;28;20495;-80
2022/06/09 03:27:21;;;;;;;51.75;21.52;;;12.70;99.90;;;;;;4971860;28;20045;-80
2022/06/09 03:29:47;;;;;;;57.28;21.95;;;12.70;99.90;;;;;;4972044;28;20038;-80
2022/06/09 03:32:12;;;;;;;56.70;21.15;;;12.70;99.90;;;;;;4987738;28;20041;-81
2022/06/09 03:34:38;;;;;;;54.72;21.38;;;12.60;99.90;;;;;;4962756;28;20129;-81
2022/06/09 03:37:04;;;;;;;53.92;22.40;;;12.70;99.90;;;;;;4969989;28;20112;-80
2022/06/09 03:39:30;;;;;;;51.42;22.80;;;12.60;99.90;;;;;;4969987;28;20048;-80
2022/06/09 03:41:55;;;;;;;48.35;21.75;;;12.70;99.90;;;;;;4954975;28;20452;-80
2022/06/09 03:44:21;;;;;;;57.72;22.85;;;12.70;99.90;;;;;;4984923;28;20082;-80
2022/06/09 03:46:47;;;;;;;49.20;22.10;;;12.60;99.90;;;;;;4972288;28;20045;-81
2022/06/09 03:49:13;;;;;;;63.85;23.52;;;12.60;99.90;;;;;;4950810;28;20041;-81
2022/06/09 03:51:39;;;;;;;59.22;23.23;;;12.60;99.90;;;;;;4974362;28;20116;-80
2022/06/09 03:54:04;;;;;;;52.85;22.83;;;12.60;99.90;;;;;;4970970;28;20033;-80
2022/06/09 03:56:30;;;;;;;61.80;24.17;;;12.60;99.90;;;;;;4984679;28;20038;-80
2022/06/09 03:58:56;;;;;;;59.47;22.83;;;12.60;99.90;;;;;;4973188;28;20501;-79
2022/06/09 04:01:41;;;;;;;60.40;22.80;;;12.60;99.90;;;;;;4959983;28;20041;-80
2022/06/09 04:04:06;;;;;;;44.25;19.63;;;12.60;99.90;;;;;;5002142;28;20511;-79
2022/06/09 04:06:34;;;;;;;38.67;19.42;;;12.60;99.90;;;;;;4969442;28;20049;-80
2022/06/09 04:09:00;;;;;;;62.50;21.55;;;12.60;99.90;;;;;;4987513;28;20117;-80
2022/06/09 04:11:26;;;;;;;52.90;21.52;;;12.60;99.90;;;;;;4942315;28;20043;-80
2022/06/09 04:13:52;;;;;;;53.55;19.95;;;12.60;99.90;;;;;;4989245;28;20092;-80
2022/06/09 04:16:26;;;;;;;48.10;19.65;;;12.60;99.90;;;;;;4989736;28;20045;-80
2022/06/09 04:18:53;;;;;;;58.00;19.88;;;12.60;99.90;;;;;;4987676;28;20046;-80
2022/06/09 04:21:20;;;;;;;41.97;18.77;;;12.60;99.90;;;;;;4957556;28;20034;-80
2022/06/09 04:23:46;;;;;;;46.55;18.92;;;12.60;99.90;;;;;;4985292;28;20422;-82
2022/06/09 04:26:15;;;;;;;47.22;19.23;;;12.70;99.90;;;;;;4977282;28;20061;-81
2022/06/09 04:28:41;;;;;;;37.53;16.65;;;12.60;99.90;;;;;;4992554;28;20050;-82
2022/06/09 04:31:08;;;;;;;45.13;17.98;;;12.60;99.90;;;;;;4976441;28;20064;-82
2022/06/09 04:33:34;;;;;;;41.25;17.52;;;12.70;99.90;;;;;;4990478;28;20036;-81
2022/06/09 04:35:59;;;;;;;52.05;19.08;;;12.70;99.90;;;;;;4978928;28;20037;-81
2022/06/09 04:38:25;;;;;;;44.20;16.75;;;12.70;99.90;;;;;;4975176;28;20108;-81
2022/06/09 04:40:51;;;;;;;44.92;17.77;;;12.70;99.90;;;;;;4990892;28;20084;-82
2022/06/09 04:43:17;;;;;;;40.10;16.70;;;12.80;99.90;;;;;;4993605;28;20058;-81
2022/06/09 04:45:42;;;;;;;40.25;18.25;;;12.80;99.90;;;;;;4962023;28;20061;-81
2022/06/09 04:48:10;;;;;;;36.42;16.13;;;12.80;99.90;;;;;;4962437;28;20049;-81
2022/06/09 04:50:36;;;;;;;39.95;17.15;;;12.80;99.90;;;;;;4986871;28;20093;-82
2022/06/09 04:53:03;;;;;;;41.67;16.73;;;12.80;99.90;;;;;;4989818;28;20042;-81
2022/06/09 04:55:29;;;;;;;39.88;17.08;;;12.80;99.90;;;;;;4991089;28;20038;-82
2022/06/09 04:57:55;;;;;;;40.42;16.15;;;12.90;99.90;;;;;;4990497;28;20061;-80
2022/06/09 05:00:22;;;;;;;44.53;16.13;;;12.90;99.90;;;;;;4991346;28;20510;-82
2022/06/09 05:02:47;;;;;;;36.25;14.43;;;12.90;99.90;;;;;;4961571;28;20041;-80
2022/06/09 05:05:29;;;;;;;36.33;14.93;;;13.00;99.90;;;;;;4973140;28;20049;-80
2022/06/09 05:08:00;;;;;;;34.78;16.00;;;13.00;99.90;;;;;;4987828;28;20046;-81
2022/06/09 05:10:27;;;;;;;30.50;15.30;;;13.00;99.90;;;;;;4990249;28;20042;-81
2022/06/09 05:12:54;;;;;;;33.00;14.68;;;13.00;99.90;;;;;;4990690;28;20092;-81
2022/06/09 05:15:21;;;;;;;28.90;14.00;;;13.00;99.90;;;;;;4974885;28;20554;-81
2022/06/09 05:17:49;;;;;;;37.95;16.50;;;13.10;99.90;;;;;;4992969;28;20096;-81
2022/06/09 05:20:18;;;;;;;36.80;14.90;;;13.10;99.90;;;;;;4976879;28;20073;-80
2022/06/09 05:22:43;;;;;;;39.42;15.18;;;13.10;99.90;;;;;;4992977;28;20038;-80
2022/06/09 05:25:10;;;;;;;28.98;13.10;;;13.10;99.90;;;;;;4961021;28;20048;-81
2022/06/09 05:27:36;;;;;;;30.73;14.13;;;13.20;99.90;;;;;;4992463;28;20527;-80
2022/06/09 05:30:05;;;;;;;31.55;15.10;;;13.20;99.90;;;;;;4989401;28;20041;-80
2022/06/09 05:32:30;;;;;;;31.23;15.38;;;13.20;99.90;;;;;;4988978;28;20052;-80
2022/06/09 05:34:56;;;;;;;26.33;15.13;;;13.20;99.90;;;;;;4975688;28;20034;-80
2022/06/09 05:37:22;;;;;;;28.60;14.90;;;13.20;99.90;;;;;;4990097;28;20228;-80
2022/06/09 05:45:17;;;;;;;31.20;15.43;;;13.40;99.90;;;;;;4977608;28;20491;-80
2022/06/09 05:47:43;;;;;;;30.00;14.25;;;13.40;99.90;;;;;;4969378;28;20549;-79
2022/06/09 05:50:10;;;;;;;32.15;15.25;;;13.40;99.90;;;;;;4992199;28;20415;-80
2022/06/09 05:52:36;;;;;;;37.30;17.60;;;13.40;99.90;;;;;;4988735;28;20148;-78
2022/06/09 05:55:03;;;;;;;34.38;16.45;;;13.40;99.90;;;;;;4974874;28;20470;-80
2022/06/09 05:57:29;;;;;;;27.60;15.32;;;13.50;99.90;;;;;;4959612;28;20044;-80
2022/06/09 05:59:56;;;;;;;25.20;15.40;;;13.50;99.90;;;;;;4974716;28;20033;-81
2022/06/09 06:02:25;;;;;;;30.08;17.10;;;13.50;99.90;;;;;;4953486;28;20034;-79
2022/06/09 06:04:52;;;;;;;26.05;15.15;;;13.50;99.90;;;;;;4987693;28;20044;-79
2022/06/09 06:07:18;;;;;;;26.48;15.38;;;13.50;99.90;;;;;;4990357;28;20044;-79
2022/06/09 06:09:44;;;;;;;30.77;16.38;;;13.50;99.90;;;;;;4970861;28;20034;-79
2022/06/09 06:12:10;;;;;;;25.48;16.45;;;13.60;99.90;;;;;;4971761;28;20663;-79
2022/06/09 06:14:38;;;;;;;26.58;16.35;;;13.60;99.90;;;;;;4954939;28;20045;-79
2022/06/09 06:17:06;;;;;;;24.05;15.88;;;13.60;99.90;;;;;;4986728;28;20037;-80
2022/06/09 06:19:31;;;;;;;26.20;16.45;;;13.60;99.90;;;;;;4973578;28;20030;-78
2022/06/09 06:21:57;;;;;;;32.28;15.13;;;13.60;99.90;;;;;;4961842;28;20129;-80
2022/06/09 06:24:24;;;;;;;27.30;15.15;;;13.70;99.90;;;;;;4977317;28;20049;-78
2022/06/09 06:26:51;;;;;;;24.25;15.50;;;13.70;99.90;;;;;;4981800;28;20046;-79
2022/06/09 06:29:22;;;;;;;32.10;16.00;;;13.70;99.90;;;;;;4974508;28;20050;-79
2022/06/09 06:31:48;;;;;;;29.90;16.42;;;13.70;99.90;;;;;;4991809;28;20117;-80
2022/06/09 06:34:14;;;;;;;28.33;15.15;;;13.80;99.90;;;;;;4974865;28;20049;-79
2022/06/09 06:36:40;;;;;;;23.35;13.93;;;13.80;99.90;;;;;;4968878;28;20048;-79
2022/06/09 06:39:06;;;;;;;22.92;15.57;;;13.80;99.90;;;;;;4989608;28;20042;-79
2022/06/09 06:41:32;;;;;;;24.20;15.15;;;13.80;99.90;;;;;;4969617;28;20112;-79
2022/06/09 06:43:58;;;;;;;24.92;16.33;;;13.80;99.90;;;;;;4987878;28;20050;-79
2022/06/09 06:46:23;;;;;;;22.70;15.07;;;13.90;99.90;;;;;;4977226;28;20064;-79
2022/06/09 06:48:49;;;;;;;20.02;13.98;;;13.90;99.90;;;;;;4977003;28;20117;-79
2022/06/09 06:51:15;;;;;;;22.35;14.80;;;14.00;99.90;;;;;;4977487;28;20045;-79
2022/06/09 06:53:41;;;;;;;22.80;15.82;;;14.10;99.90;;;;;;4949809;28;20455;-79
2022/06/09 06:56:08;;;;;;;23.80;15.07;;;14.10;99.90;;;;;;4964133;28;20078;-78
2022/06/09 06:58:34;;;;;;;20.52;14.02;;;14.10;99.90;;;;;;4976122;28;20582;-78
2022/06/09 07:01:02;;;;;;;23.58;15.48;;;14.10;99.90;;;;;;4987090;28;20030;-78
2022/06/09 07:03:29;;;;;;;25.33;16.90;;;14.10;99.90;;;;;;4963285;28;20483;-79
2022/06/09 07:05:55;;;;;;;23.55;16.75;;;14.10;99.90;;;;;;4981808;28;20049;-79
2022/06/09 07:08:23;;;;;;;25.35;16.27;;;14.10;99.90;;;;;;4977217;28;20130;-78
2022/06/09 07:10:49;;;;;;;30.30;16.85;;;14.20;99.90;;;;;;4976788;28;20041;-78
2022/06/09 07:13:15;;;;;;;26.02;17.15;;;14.20;99.90;;;;;;4973429;28;20038;-78
2022/06/09 07:15:40;;;;;;;27.00;16.92;;;14.30;99.90;;;;;;4961523;28;20122;-78
2022/06/09 07:18:06;;;;;;;28.80;17.70;;;14.30;99.90;;;;;;4959320;28;20038;-79
2022/06/09 07:20:32;;;;;;;24.88;17.45;;;14.40;99.90;;;;;;4984950;28;20084;-79
2022/06/09 07:22:58;;;;;;;26.85;17.25;;;14.50;99.90;;;;;;4973636;28;20050;-78
2022/06/09 07:25:26;;;;;;;24.02;14.90;;;14.50;99.90;;;;;;4973612;28;20077;-79
2022/06/09 07:27:53;;;;;;;23.23;15.75;;;14.70;99.90;;;;;;4961376;28;20048;-79
2022/06/09 07:30:20;;;;;;;24.23;16.48;;;14.80;99.90;;;;;;4978212;28;20130;-79
2022/06/09 07:32:46;;;;;;;26.35;16.77;;;14.80;99.90;;;;;;4951383;28;20564;-78
2022/06/09 07:35:14;;;;;;;26.10;16.38;;;14.80;99.90;;;;;;4972600;28;20038;-78
2022/06/09 07:37:43;;;;;;;21.02;15.45;;;14.90;99.90;;;;;;4977058;28;20039;-78
2022/06/09 07:40:13;;;;;;;23.50;16.17;;;15.00;99.90;;;;;;4968576;28;20538;-77
2022/06/09 07:42:39;;;;;;;18.13;13.13;;;15.20;99.90;;;;;;4971805;28;20090;-77
2022/06/09 07:45:06;;;;;;;19.33;13.68;;;15.20;99.90;;;;;;4978613;28;20545;-78
2022/06/09 07:47:32;;;;;;;22.27;14.05;;;15.20;99.90;;;;;;4957221;28;20038;-79
2022/06/09 07:49:58;;;;;;;18.58;14.20;;;15.20;99.90;;;;;;4977087;28;20035;-79
2022/06/09 07:52:24;;;;;;;17.45;13.45;;;15.30;99.90;;;;;;4946989;28;20179;-78
2022/06/09 07:54:50;;;;;;;21.50;14.43;;;15.30;99.90;;;;;;4949830;28;20038;-78
2022/06/09 07:57:16;;;;;;;14.93;11.90;;;15.40;99.90;;;;;;4982807;28;20411;-78
2022/06/09 07:59:41;;;;;;;17.75;12.90;;;15.50;99.90;;;;;;4963764;28;20041;-77
2022/06/09 08:02:07;;;;;;;16.80;11.63;;;15.60;99.90;;;;;;4946927;28;20084;-77
2022/06/09 08:04:33;;;;;;;16.40;11.00;;;15.70;99.90;;;;;;4980213;28;20043;-78
2022/06/09 08:06:59;;;;;;;16.88;9.73;;;15.80;99.90;;;;;;4979342;28;20500;-78
2022/06/09 08:09:25;;;;;;;15.38;11.52;;;15.90;99.90;;;;;;4980461;28;20076;-77
2022/06/09 08:11:51;;;;;;;14.15;9.40;;;16.00;99.90;;;;;;4961217;28;20050;-76
2022/06/09 08:14:17;;;;;;;13.32;8.98;;;16.00;99.90;;;;;;4962358;28;20073;-78
2022/06/09 08:16:43;;;;;;;11.05;8.18;;;16.00;99.90;;;;;;4962522;28;20190;-77
2022/06/09 08:19:09;;;;;;;13.43;7.90;;;16.10;99.90;;;;;;4962131;28;20030;-78
2022/06/09 08:21:35;;;;;;;13.23;7.47;;;16.20;99.90;;;;;;4994031;28;20618;-77
2022/06/09 08:24:01;;;;;;;9.05;6.60;;;16.10;99.90;;;;;;4982947;28;20503;-78
2022/06/09 08:26:27;;;;;;;9.18;7.10;;;16.10;99.90;;;;;;4966852;28;20109;-77
2022/06/09 08:28:53;;;;;;;10.00;6.20;;;16.10;99.90;;;;;;4971444;28;20120;-77
2022/06/09 08:31:19;;;;;;;14.70;7.47;;;16.20;99.90;;;;;;4979486;28;20092;-77
2022/06/09 08:33:45;;;;;;;8.93;5.20;;;16.40;99.90;;;;;;4974991;28;20410;-77
2022/06/09 08:36:11;;;;;;;7.05;6.07;;;16.60;99.90;;;;;;4960583;28;20041;-77
2022/06/09 08:38:37;;;;;;;8.63;5.50;;;16.50;99.90;;;;;;4953920;28;20026;-76
2022/06/09 08:41:18;;;;;;;9.60;5.60;;;16.50;99.90;;;;;;4967862;28;20050;-76
2022/06/09 08:44:06;;;;;;;8.15;5.60;;;16.60;99.90;;;;;;4974195;28;20054;-77
2022/06/09 08:47:11;;;;;;;5.00;3.75;;;16.70;99.90;;;;;;4949801;28;20104;-75
2022/06/09 08:49:55;;;;;;;6.75;3.40;;;16.80;99.90;;;;;;4968317;28;20045;-76
2022/06/09 08:52:44;;;;;;;6.07;3.28;;;17.10;99.90;;;;;;4991698;28;20458;-75
2022/06/09 08:55:21;;;;;;;4.72;3.83;;;17.20;99.90;;;;;;4965938;28;20536;-76
2022/06/09 08:57:48;;;;;;;7.00;3.60;;;17.10;99.90;;;;;;4989205;28;20038;-76
2022/06/09 09:00:17;;;;;;;6.68;3.05;;;17.00;99.90;;;;;;4982412;28;20112;-75
2022/06/09 09:02:50;;;;;;;6.65;2.95;;;17.10;99.90;;;;;;4989474;28;20046;-75
2022/06/09 09:05:26;;;;;;;7.72;3.13;;;17.20;99.90;;;;;;4989811;28;20045;-76
2022/06/09 09:07:56;;;;;;;6.75;3.33;;;17.10;99.90;;;;;;4971607;28;20495;-77
2022/06/09 09:10:25;;;;;;;6.28;2.92;;;17.10;99.90;;;;;;4988858;28;20038;-75
2022/06/09 09:13:16;;;;;;;4.03;2.70;;;17.30;99.90;;;;;;4992693;28;20455;-75
2022/06/09 09:15:51;;;;;;;4.75;2.60;;;17.50;99.90;;;;;;4993389;28;20045;-75
2022/06/09 09:18:35;;;;;;;3.50;2.40;;;17.70;99.90;;;;;;4980723;28;20041;-75
2022/06/09 09:21:20;;;;;;;6.47;2.20;;;17.90;99.90;;;;;;4989269;28;20046;-75
2022/06/09 09:23:52;;;;;;;5.43;2.15;;;18.10;99.90;;;;;;4982545;28;20049;-75
2022/06/09 09:26:23;;;;;;;3.53;2.38;;;18.30;99.90;;;;;;4980904;28;20042;-76
2022/06/09 09:28:57;;;;;;;2.28;1.88;;;18.20;99.90;;;;;;4997269;28;20034;-76
2022/06/09 09:31:43;;;;;;;6.07;1.95;;;18.00;99.90;;;;;;4979927;28;20046;-76
2022/06/09 09:34:16;;;;;;;3.95;2.00;;;18.00;99.90;;;;;;4975072;28;20034;-76
2022/06/09 09:36:43;;;;;;;;;;;18.10;99.90;;;;;;4984880;28;20407;-76
2022/06/09 09:39:14;;;;;;;2.78;1.90;;;18.10;99.90;;;;;;4980107;28;19928;-76
2022/06/09 09:41:41;;;;;;;4.63;1.73;;;18.30;99.90;;;;;;4981239;28;20046;-76
2022/06/09 09:44:20;;;;;;;2.22;1.42;;;18.40;99.90;;;;;;4959637;28;20050;-76
2022/06/09 09:46:55;;;;;;;2.47;1.45;;;18.60;99.90;;;;;;4981109;28;20115;-75
2022/06/09 09:49:44;;;;;;;3.75;1.63;;;18.80;99.90;;;;;;4980541;28;20399;-76
2022/06/09 09:52:37;;;;;;;6.85;2.00;;;19.00;99.90;;;;;;4995670;28;20038;-76
2022/06/09 09:55:20;;;;;;;5.68;1.75;;;19.00;99.90;;;;;;4979610;28;20069;-75
2022/06/09 09:57:46;;;;;;;4.35;1.58;;;18.70;99.90;;;;;;4978762;28;20375;-76
2022/06/09 10:00:26;;;;;;;3.95;1.90;;;18.40;99.90;;;;;;4986031;28;20045;-76
2022/06/09 10:08:43;;;;;;;4.63;1.48;;;18.00;99.90;;;;;;4956938;28;20667;-75
2022/06/09 10:14:38;;;;;;;4.05;1.63;;;18.20;99.90;;;;;;5009126;28;20045;-68
2022/06/09 10:17:23;;;;;;;2.90;1.52;;;18.60;99.90;;;;;;4978858;28;20558;-68
2022/06/09 10:20:10;;;;;;;4.70;1.60;;;18.90;99.90;;;;;;5008284;28;20100;-69
2022/06/09 10:22:38;;;;;;;7.03;1.75;;;19.20;99.90;;;;;;4993825;28;20150;-73
2022/06/09 10:25:27;;;;;;;3.50;1.60;;;19.10;99.90;;;;;;4978764;28;20312;-74
2022/06/09 10:28:31;;;;;;;2.72;1.50;;;18.90;99.90;;;;;;4979032;28;20067;-75
2022/06/09 10:31:36;;;;;;;5.07;1.98;;;18.50;99.90;;;;;;4977236;28;20038;-75
2022/06/09 10:34:38;;;;;;;6.68;2.00;;;18.10;99.90;;;;;;4934331;28;20550;-75
2022/06/09 10:37:13;;;;;;;4.75;2.00;;;17.70;99.90;;;;;;4968162;28;20056;-75
2022/06/09 10:39:48;;;;;;;4.50;1.95;;;17.60;99.90;;;;;;4996243;28;20084;-74
2022/06/09 10:42:27;;;;;;;3.80;2.30;;;17.50;99.90;;;;;;4980545;28;20053;-74
2022/06/09 10:45:18;;;;;;;4.85;1.95;;;17.40;99.90;;;;;;4978486;28;20499;-75
2022/06/09 10:56:55;;;;;;;6.32;1.90;;;17.50;99.90;;;;;;5010484;28;20046;-75
2022/06/09 10:59:56;;;;;;;9.52;2.22;;;17.70;99.90;;;;;;4997459;28;20468;-74
2022/06/09 11:02:26;;;;;;;3.30;1.85;;;18.20;99.90;;;;;;4946581;28;20038;-74
2022/06/09 11:05:14;;;;;;;5.07;1.90;;;18.50;99.90;;;;;;4983185;28;20035;-75
2022/06/09 11:07:52;;;;;;;2.03;1.15;;;18.40;99.90;;;;;;4966268;28;20048;-74
2022/06/09 11:10:46;;;;;;;3.08;1.30;;;18.30;99.90;;;;;;4977524;28;20033;-74
2022/06/09 11:13:15;;;;;;;6.47;1.60;;;18.40;99.90;;;;;;4982719;28;20042;-74
2022/06/09 11:19:33;;;;;;;4.78;1.42;;;18.90;99.90;;;;;;4877422;29;20073;-74
2022/06/09 11:22:21;;;;;;;4.70;1.58;;;19.20;99.90;;;;;;4995099;28;20096;-73
2022/06/09 11:25:13;;;;;;;3.85;1.50;;;19.50;99.90;;;;;;4993329;28;20139;-73
2022/06/09 11:28:09;;;;;;;4.87;2.20;;;19.70;99.90;;;;;;4979539;28;20085;-73
2022/06/09 11:30:55;;;;;;;5.65;1.77;;;19.80;99.90;;;;;;4977488;28;20571;-74
2022/06/09 11:33:23;;;;;;;4.50;1.48;;;19.70;99.90;;;;;;4979382;28;20096;-74
2022/06/09 11:35:57;;;;;;;4.45;1.67;;;19.60;99.90;;;;;;4981606;28;20053;-74
2022/06/09 11:38:41;;;;;;;4.25;1.50;;;19.50;99.90;;;;;;4987577;28;20042;-74
2022/06/09 11:41:08;;;;;;;4.20;1.48;;;19.60;99.90;;;;;;4986768;28;20048;-75
2022/06/09 11:44:00;;;;;;;4.55;1.70;;;19.80;99.90;;;;;;4991791;28;20478;-73
2022/06/09 11:46:34;;;;;;;3.38;1.60;;;20.00;99.90;;;;;;4992789;28;20383;-74
2022/06/09 11:49:25;;;;;;;2.53;1.50;;;19.90;99.90;;;;;;4976843;28;20038;-75
2022/06/09 11:52:16;;;;;;;6.43;2.17;;;20.00;99.90;;;;;;4991987;28;20080;-74
2022/06/09 11:54:54;;;;;;;2.25;1.25;;;20.10;99.90;;;;;;4933477;29;20685;-73
2022/06/09 11:57:47;;;;;;;5.00;1.63;;;20.20;99.90;;;;;;4915000;29;20158;-74
2022/06/09 12:00:19;;;;;;;3.25;1.50;;;20.30;99.90;;;;;;4928573;29;20051;-74
2022/06/09 12:03:16;;;;;;;5.60;1.75;;;20.00;99.90;;;;;;4933385;29;20071;-74
2022/06/09 12:05:52;;;;;;;3.30;1.30;;;20.00;99.90;;;;;;4932894;29;20203;-74
2022/06/09 12:08:55;;;;;;;4.00;1.55;;;20.00;99.90;;;;;;4933550;29;20050;-74
2022/06/09 12:11:24;;;;;;;6.00;1.73;;;20.20;99.90;;;;;;4914136;29;20047;-75
2022/06/09 12:14:17;;;;;;;4.05;1.42;;;20.20;99.90;;;;;;4918576;29;20071;-73
2022/06/09 12:17:08;;;;;;;4.07;1.55;;;20.20;99.90;;;;;;4934883;28;20312;-73
2022/06/09 12:19:57;;;;;;;5.18;1.50;;;20.30;99.90;;;;;;4914009;29;20051;-73
2022/06/09 12:22:40;;;;;;;4.85;1.65;;;20.30;99.90;;;;;;4910474;29;20401;-74
2022/06/09 12:25:12;;;;;;;5.30;1.52;;;20.30;99.90;;;;;;4922028;28;20064;-73
2022/06/09 12:27:38;;;;;;;3.43;1.20;;;20.40;99.90;;;;;;4992895;28;20038;-74
2022/06/09 12:30:24;;;;;;;3.22;1.15;;;20.50;99.90;;;;;;4976290;28;20041;-74
2022/06/09 12:33:12;;;;;;;3.92;1.13;;;20.50;99.90;;;;;;4992627;28;20410;-72
2022/06/09 12:36:05;;;;;;;4.32;1.35;;;20.40;99.90;;;;;;4992635;28;20038;-72
2022/06/09 12:38:53;;;;;;;4.65;1.58;;;20.50;99.90;;;;;;5011047;28;20461;-71
2022/06/09 12:41:37;;;;;;;4.10;1.27;;;20.50;99.90;;;;;;4975755;28;20585;-72
2022/06/09 12:44:46;;;;;;;4.20;1.48;;;20.60;99.90;;;;;;4971325;28;20169;-72
2022/06/09 12:47:17;;;;;;;3.55;1.48;;;20.30;99.90;;;;;;4936415;28;20170;-72
2022/06/09 12:49:50;;;;;;;4.78;1.42;;;20.40;99.90;;;;;;4950512;28;20103;-72
2022/06/09 12:52:27;;;;;;;3.10;1.70;;;20.60;99.90;;;;;;4935372;28;20063;-72
2022/06/09 12:55:02;;;;;;;3.38;1.75;;;20.80;99.90;;;;;;4936816;28;20481;-72
2022/06/09 12:57:32;;;;;;;4.47;1.70;;;20.90;99.90;;;;;;4923491;28;20508;-73
2022/06/09 13:00:25;;;;;;;5.05;1.52;;;20.90;99.90;;;;;;4942728;28;20191;-73
2022/06/09 13:02:50;;;;;;;6.45;1.52;;;20.50;99.00;;;;;;4948673;28;20049;-76
2022/06/09 13:05:19;;;;;;;4.30;1.50;;;20.10;99.90;;;;;;4951297;28;20126;-76
2022/06/09 13:07:50;;;;;;;3.63;1.48;;;19.90;99.90;;;;;;4955609;28;20532;-76
2022/06/09 13:10:29;;;;;;;1.95;1.35;;;19.80;99.90;;;;;;4955750;28;20061;-77
2022/06/09 13:13:23;;;;;;;2.50;1.27;;;19.90;99.90;;;;;;4950566;29;20079;-77
2022/06/09 13:16:12;;;;;;;4.85;1.58;;;20.10;99.90;;;;;;4939694;28;20237;-76
2022/06/09 13:18:52;;;;;;;2.65;1.15;;;20.30;99.90;;;;;;4965647;28;20038;-75
2022/06/09 13:21:21;;;;;;;4.22;1.30;;;20.50;99.90;;;;;;4989475;28;20496;-76
2022/06/09 13:23:51;;;;;;;2.72;1.52;;;20.50;99.90;;;;;;4978335;28;20511;-76
2022/06/09 13:26:39;;;;;;;4.35;1.27;;;20.40;99.90;;;;;;4963809;28;20401;-78
2022/06/09 13:29:21;;;;;;;4.88;1.15;;;20.30;99.90;;;;;;4973921;28;20491;-77